METAR Data
IDs: Format: Raw Decoded Include TAF

Data at: 0116 UTC 16 Jan 2019

METAR for:PADK (Adak (NAS), AK, US)
Text:PADK 160056Z AUTO 31007KT 10SM UP BKN040 BKN047 BKN060 01/M07 A2981 RMK AO2 UPB09E19B44RAB19E25SNE03 SLP093 P0000 T00061067 FZRANO
Temperature: 0.6°C ( 33°F)
Dewpoint: -6.7°C ( 20°F) [RH = 58%]
Pressure (altimeter):29.81 inches Hg (1009.6 mb) [Sea level pressure: 1009.3 mb]
Winds:from the NW (310 degrees) at 8 MPH (7 knots; 3.6 m/s)
Visibility:10 or more sm (16+ km)
Ceiling:4000 feet AGL
Clouds: broken clouds at 4000 feet AGL, broken clouds at 4700 feet AGL, broken clouds at 6000 feet AGL
Weather:UP (unknown precipitation)
QC Flag:automated observation with no human augmentation
Text:PADK 152356Z AUTO 30011KT 8SM -SN FEW006 SCT031 BKN040 M02/M04 A2980 RMK AO2 UPB34E42SNB42 SLP091 P0000 60001 T10171044 10000 21022 51012 FZRANO
Temperature: -1.7°C ( 29°F)
Dewpoint: -4.4°C ( 24°F) [RH = 82%]
Pressure (altimeter):29.80 inches Hg (1009.2 mb) [Sea level pressure: 1009.1 mb]
Winds:from the WNW (300 degrees) at 13 MPH (11 knots; 5.7 m/s)
Visibility: 8 sm ( 13 km)
Ceiling:4000 feet AGL
Clouds: few clouds at 600 feet AGL, scattered clouds at 3100 feet AGL, broken clouds at 4000 feet AGL
Weather:-SN (light snow)
QC Flag:automated observation with no human augmentation
Text:PADK 152354Z AUTO 30007KT 3SM -SN FEW006 SCT029 BKN040 M02/M04 A2980 RMK AO2 UPB34E42SNB42 P0000 FZRANO
Temperature: -2.0°C ( 28°F)
Dewpoint: -4.0°C ( 25°F) [RH = 86%]
Pressure (altimeter):29.80 inches Hg (1009.2 mb)
Winds:from the WNW (300 degrees) at 8 MPH (7 knots; 3.6 m/s)
Visibility: 3 sm ( 5 km)
Ceiling:4000 feet AGL
Clouds: few clouds at 600 feet AGL, scattered clouds at 2900 feet AGL, broken clouds at 4000 feet AGL
Weather:-SN (light snow)
QC Flag:automated observation with no human augmentation
Text:PADK 152344Z AUTO 30013G20KT 1 1/2SM -SN FEW007 SCT012 OVC039 M01/M05 A2980 RMK AO2 UPB34E42SNB42 P0000 FZRANO
Temperature: -1.0°C ( 30°F)
Dewpoint: -5.0°C ( 23°F) [RH = 74%]
Pressure (altimeter):29.80 inches Hg (1009.2 mb)
Winds:from the WNW (300 degrees) at 15 MPH (13 knots; 6.7 m/s) gusting to 23 MPH (20 knots; 10.3 m/s)
Visibility: 1.50 sm ( 2.41 km)
Ceiling:3900 feet AGL
Clouds: few clouds at 700 feet AGL, scattered clouds at 1200 feet AGL, overcast cloud deck at 3900 feet AGL
Weather:-SN (light snow)
QC Flag:automated observation with no human augmentation
Text:PADK 152342Z AUTO 30014G20KT 2 1/2SM -SN FEW010 SCT029 BKN039 M01/M05 A2980 RMK AO2 UPB34E42SNB42 P0000 FZRANO
Temperature: -1.0°C ( 30°F)
Dewpoint: -5.0°C ( 23°F) [RH = 74%]
Pressure (altimeter):29.80 inches Hg (1009.2 mb)
Winds:from the WNW (300 degrees) at 16 MPH (14 knots; 7.2 m/s) gusting to 23 MPH (20 knots; 10.3 m/s)
Visibility: 2.50 sm ( 4.02 km)
Ceiling:3900 feet AGL
Clouds: few clouds at 1000 feet AGL, scattered clouds at 2900 feet AGL, broken clouds at 3900 feet AGL
Weather:-SN (light snow)
QC Flag:automated observation with no human augmentation
Text:PADK 152256Z AUTO 32008KT 10SM BKN039 BKN046 M01/M07 A2980 RMK AO2 UPB21E38SNE21 SLP089 P0001 T10061067 FZRANO
Temperature: -0.6°C ( 31°F)
Dewpoint: -6.7°C ( 20°F) [RH = 63%]
Pressure (altimeter):29.80 inches Hg (1009.2 mb) [Sea level pressure: 1008.9 mb]
Winds:from the NW (320 degrees) at 9 MPH (8 knots; 4.1 m/s)
Visibility:10 or more sm (16+ km)
Ceiling:3900 feet AGL
Clouds: broken clouds at 3900 feet AGL, broken clouds at 4600 feet AGL
QC Flag:automated observation with no human augmentation
Text:PADK 152225Z AUTO 31012KT 10SM UP FEW012 SCT029 BKN038 M01/M07 A2979 RMK AO2 UPB21SNE21 P0001 FZRANO
Temperature: -1.0°C ( 30°F)
Dewpoint: -7.0°C ( 19°F) [RH = 64%]
Pressure (altimeter):29.79 inches Hg (1008.9 mb)
Winds:from the NW (310 degrees) at 14 MPH (12 knots; 6.2 m/s)
Visibility:10 or more sm (16+ km)
Ceiling:3800 feet AGL
Clouds: few clouds at 1200 feet AGL, scattered clouds at 2900 feet AGL, broken clouds at 3800 feet AGL
Weather:UP (unknown precipitation)
QC Flag:automated observation with no human augmentation
Text:PADK 152206Z AUTO 29008KT 3SM -SN BR SCT009 BKN016 OVC026 M02/M04 A2979 RMK AO2 P0001 FZRANO
Temperature: -2.0°C ( 28°F)
Dewpoint: -4.0°C ( 25°F) [RH = 86%]
Pressure (altimeter):29.79 inches Hg (1008.9 mb)
Winds:from the WNW (290 degrees) at 9 MPH (8 knots; 4.1 m/s)
Visibility: 3 sm ( 5 km)
Ceiling:1600 feet AGL
Clouds: scattered clouds at 900 feet AGL, broken clouds at 1600 feet AGL, overcast cloud deck at 2600 feet AGL
Weather:-SN BR (light snow, mist)
QC Flag:automated observation with no human augmentation
Text:PADK 152204Z AUTO 29008KT 2SM -SN BR FEW007 BKN014 OVC026 M02/M04 A2979 RMK AO2 P0001 FZRANO
Temperature: -2.0°C ( 28°F)
Dewpoint: -4.0°C ( 25°F) [RH = 86%]
Pressure (altimeter):29.79 inches Hg (1008.9 mb)
Winds:from the WNW (290 degrees) at 9 MPH (8 knots; 4.1 m/s)
Visibility: 2.00 sm ( 3.22 km)
Ceiling:1400 feet AGL
Clouds: few clouds at 700 feet AGL, broken clouds at 1400 feet AGL, overcast cloud deck at 2600 feet AGL
Weather:-SN BR (light snow, mist)
QC Flag:automated observation with no human augmentation
Text:PADK 152200Z AUTO 27006KT 1SM -SN BR SCT009 BKN016 OVC026 M02/M04 A2979 RMK AO2 P0001 FZRANO
Temperature: -2.0°C ( 28°F)
Dewpoint: -4.0°C ( 25°F) [RH = 86%]
Pressure (altimeter):29.79 inches Hg (1008.9 mb)
Winds:from the W (270 degrees) at 7 MPH (6 knots; 3.1 m/s)
Visibility: 1.00 sm ( 1.61 km)
Ceiling:1600 feet AGL
Clouds: scattered clouds at 900 feet AGL, broken clouds at 1600 feet AGL, overcast cloud deck at 2600 feet AGL
Weather:-SN BR (light snow, mist)
QC Flag:automated observation with no human augmentation
Text:PADK 152156Z AUTO 25006KT 3/4SM -SN BR SCT007 BKN012 OVC026 M02/M04 A2979 RMK AO2 UPB00E06B25E36SNE00B06E25B36 SLP088 P0000 T10221039 FZRANO
Temperature: -2.2°C ( 28°F)
Dewpoint: -3.9°C ( 25°F) [RH = 88%]
Pressure (altimeter):29.79 inches Hg (1008.9 mb) [Sea level pressure: 1008.8 mb]
Winds:from the WSW (250 degrees) at 7 MPH (6 knots; 3.1 m/s)
Visibility: 0.75 sm ( 1.21 km)
Ceiling:1200 feet AGL
Clouds: scattered clouds at 700 feet AGL, broken clouds at 1200 feet AGL, overcast cloud deck at 2600 feet AGL
Weather:-SN BR (light snow, mist)
QC Flag:automated observation with no human augmentation
Text:PADK 152151Z AUTO 26008KT 1/2SM SN FZFG SCT007 BKN016 OVC029 M02/M04 A2979 RMK AO2 UPB00E06B25E36SNE00B06E25B36 CIG 012V022 P0000 FZRANO
Temperature: -2.0°C ( 28°F)
Dewpoint: -4.0°C ( 25°F) [RH = 86%]
Pressure (altimeter):29.79 inches Hg (1008.9 mb)
Winds:from the W (260 degrees) at 9 MPH (8 knots; 4.1 m/s)
Visibility: 0.50 sm ( 0.80 km)
Ceiling:1600 feet AGL
Clouds: scattered clouds at 700 feet AGL, broken clouds at 1600 feet AGL, overcast cloud deck at 2900 feet AGL
Weather:SN FZFG (moderate snow, freezing fog)
QC Flag:automated observation with no human augmentation
Text:PADK 152147Z AUTO 26008KT 1SM -SN SCT010 BKN027 OVC043 M02/M04 A2979 RMK AO2 UPB00E06B25E36SNE00B06E25B36 P0000 FZRANO
Temperature: -2.0°C ( 28°F)
Dewpoint: -4.0°C ( 25°F) [RH = 86%]
Pressure (altimeter):29.79 inches Hg (1008.9 mb)
Winds:from the W (260 degrees) at 9 MPH (8 knots; 4.1 m/s)
Visibility: 1.00 sm ( 1.61 km)
Ceiling:2700 feet AGL
Clouds: scattered clouds at 1000 feet AGL, broken clouds at 2700 feet AGL, overcast cloud deck at 4300 feet AGL
Weather:-SN (light snow)
QC Flag:automated observation with no human augmentation
Text:PADK 152140Z AUTO 27008KT 2 1/2SM -SN FEW020 BKN026 OVC043 M01/M05 A2979 RMK AO2 VIS 2V5 UPB00E06B25E36SNE00B06E25B36 P0000 FZRANO
Temperature: -1.0°C ( 30°F)
Dewpoint: -5.0°C ( 23°F) [RH = 74%]
Pressure (altimeter):29.79 inches Hg (1008.9 mb)
Winds:from the W (270 degrees) at 9 MPH (8 knots; 4.1 m/s)
Visibility: 2.50 sm ( 4.02 km)
Ceiling:2600 feet AGL
Clouds: few clouds at 2000 feet AGL, broken clouds at 2600 feet AGL, overcast cloud deck at 4300 feet AGL
Weather:-SN (light snow)
QC Flag:automated observation with no human augmentation
Text:PADK 152056Z AUTO 32013KT 9SM -SN BKN047 OVC055 M01/M07 A2976 RMK AO2 SLP079 P0000 60000 T10061072 51026 FZRANO
Temperature: -0.6°C ( 31°F)
Dewpoint: -7.2°C ( 19°F) [RH = 61%]
Pressure (altimeter):29.76 inches Hg (1007.9 mb) [Sea level pressure: 1007.9 mb]
Winds:from the NW (320 degrees) at 15 MPH (13 knots; 6.7 m/s)
Visibility: 9 sm ( 14 km)
Ceiling:4700 feet AGL
Clouds: broken clouds at 4700 feet AGL, overcast cloud deck at 5500 feet AGL
Weather:-SN (light snow)
QC Flag:automated observation with no human augmentation
Text:PADK 151956Z AUTO 30011G19KT 9SM -SN SCT044 OVC055 M01/M07 A2974 RMK AO2 UPB39E48SNE39B48 SLP072 P0000 T10111072 FZRANO
Temperature: -1.1°C ( 30°F)
Dewpoint: -7.2°C ( 19°F) [RH = 63%]
Pressure (altimeter):29.74 inches Hg (1007.2 mb) [Sea level pressure: 1007.2 mb]
Winds:from the WNW (300 degrees) at 13 MPH (11 knots; 5.7 m/s) gusting to 22 MPH (19 knots; 9.8 m/s)
Visibility: 9 sm ( 14 km)
Ceiling:5500 feet AGL
Clouds: scattered clouds at 4400 feet AGL, overcast cloud deck at 5500 feet AGL
Weather:-SN (light snow)
QC Flag:automated observation with no human augmentation

TAF for:PADK (Adak (NAS), AK, US)
Text:No data found